Antares — DFJQ — position and weather

sailwx.info

Track history (hours):
 
Tides and Currents Weather Stations Pressure Air Temp Water Temp Dewpoint Dewpoint Depression Visibility Wind Speed Wind Dir Waves Ship Positions

Antares

Last reported at 2014-Sep-16 22:33 UTC. Time now 2014-Sep-16 23:31 UTC.
Position N 50°50' E 000°60'.

Length 79 m; draft 4.5 m.

Type: Ship. MMSI: 218777000.

Date/timePositionNaut miles runAvg speedWind from/ knotsBaromVisibWave heightAir tempDewpointWater temp
2014-Sep-16 22:33N 50°50' E 000°60'1111.4
2014-Sep-16 21:34N 50°57' E 001°13'1110.9
2014-Sep-16 20:33N 51°04' E 001°27'10 9.7
2014-Sep-16 19:34N 51°10' E 001°39'9 9.0
2014-Sep-16 18:34N 51°17' E 001°48'9 9.3
2014-Sep-16 17:34N 51°26' E 001°53'10 9.7
2014-Sep-16 16:34N 51°33' E 002°03'1110.7
2014-Sep-16 15:33N 51°41' E 002°16'1111.3
2014-Sep-16 14:33N 51°49' E 002°28'1211.8
2014-Sep-16 13:33N 51°58' E 002°41'1110.9
2014-Sep-16 12:33N 52°01' E 002°58'1110.9
2014-Sep-16 11:33N 52°02' E 003°16'1110.6
2014-Sep-16 10:33N 52°03' E 003°33'1010.3
2014-Sep-16 09:33N 52°03' E 003°50'10 9.8
2014-Sep-16 08:34N 51°59' E 004°04'1010.0
2014-Sep-16 07:33N 51°54' E 004°18'6 5.9
2014-Sep-16 06:34N 51°50' E 004°26'8 7.9
2014-Sep-16 05:34N 51°48' E 004°38'1 0.6
2014-Sep-16 04:31N 51°47' E 004°38'0 0.0
2014-Sep-16 03:31N 51°47' E 004°38'0 0.0
2014-Sep-16 02:31N 51°47' E 004°38'0 0.0
2014-Sep-16 01:31N 51°47' E 004°38'0 0.0
2014-Sep-16 00:31N 51°47' E 004°38'0 0.0
2014-Sep-15 23:31N 51°47' E 004°38'0 0.0
2014-Sep-15 22:28N 51°47' E 004°38'0 0.0
2014-Sep-15 21:31N 51°47' E 004°38'0 0.0
2014-Sep-15 20:31N 51°47' E 004°38'0 0.0
2014-Sep-15 19:31N 51°47' E 004°38'0 0.0
2014-Sep-15 18:31N 51°47' E 004°38'0 0.0
2014-Sep-15 17:31N 51°47' E 004°38'0 0.0
2014-Sep-15 16:31N 51°47' E 004°38'0 0.0
2014-Sep-15 15:31N 51°47' E 004°38'0 0.0
2014-Sep-15 14:31N 51°47' E 004°38'0 0.0
2014-Sep-15 13:28N 51°47' E 004°38'0 0.0
2014-Sep-15 12:31N 51°47' E 004°38'0 0.0
2014-Sep-15 11:31N 51°47' E 004°38'0 0.0
2014-Sep-15 10:31N 51°47' E 004°38'0 0.0
2014-Sep-15 09:31N 51°47' E 004°38'0 0.0
2014-Sep-15 08:31N 51°47' E 004°38'0 0.3
2014-Sep-15 07:34N 51°47' E 004°38'8 8.3
2014-Sep-15 06:34N 51°50' E 004°26'6 6.1
2014-Sep-15 05:33N 51°54' E 004°17'9 8.5
2014-Sep-15 04:33N 51°59' E 004°06'1010.0
2014-Sep-15 03:33N 51°59' E 003°50'3 2.7
2014-Sep-15 02:21N 51°56' E 003°46'0 0.0
2014-Sep-15 01:21N 51°56' E 003°46'0 0.0
2014-Sep-15 00:33N 51°56' E 003°46'0 0.0
2014-Sep-14 23:33N 51°56' E 003°46'0 0.0
2014-Sep-14 22:24N 51°56' E 003°46'0 0.0
2014-Sep-14 21:21N 51°56' E 003°46'0 0.1
2014-Sep-14 20:21N 51°56' E 003°47'0 0.0
2014-Sep-14 19:27N 51°56' E 003°47'0 0.0
2014-Sep-14 18:33N 51°56' E 003°47'0 0.0
2014-Sep-14 17:33N 51°56' E 003°47'0 0.1
2014-Sep-14 16:21N 51°56' E 003°46'0 0.0
2014-Sep-14 15:30N 51°56' E 003°46'0 0.0
2014-Sep-14 14:33N 51°56' E 003°46'0 0.0
2014-Sep-14 13:21N 51°56' E 003°46'1 1.8
2014-Sep-14 12:33N 51°57' E 003°45'1212.0
2014-Sep-14 11:33N 52°09' E 003°45'1111.2
2014-Sep-14 10:33N 52°20' E 003°48'7110.2
2014-Sep-14 03:32N 53°26' E 004°36'1111.6
2014-Sep-14 02:33N 53°31' E 004°53'1211.8
2014-Sep-14 01:33N 53°35' E 005°11'4110.3
2014-Sep-13 21:33N 53°49' E 006°17'1310.5
2014-Sep-13 20:21N 53°52' E 006°38'2711.8
2014-Sep-13 18:04N 53°58' E 007°22'612.0
2014-Sep-13 17:33N 53°60' E 007°33'1211.7
2014-Sep-13 16:33N 54°01' E 007°52'1211.6
2014-Sep-13 15:33N 54°01' E 008°12'1110.8
2014-Sep-13 14:33N 53°59' E 008°30'8 8.5
2014-Sep-13 13:33N 53°54' E 008°42'7 7.4
2014-Sep-13 12:33N 53°51' E 008°53'9 9.5
2014-Sep-13 11:33N 53°54' E 009°09'2 2.0
2014-Sep-13 10:33N 53°55' E 009°11'8 8.4
2014-Sep-13 09:33N 54°02' E 009°18'8 8.0
2014-Sep-13 08:33N 54°10' E 009°24'9 8.3
2014-Sep-13 07:27N 54°14' E 009°37'46 6.3
2014-Sep-13 00:04N 54°35' E 010°48'611.3
2014-Sep-12 23:33N 54°35' E 010°58'1111.3
2014-Sep-12 22:34N 54°35' E 011°17'1211.7
2014-Sep-12 21:33N 54°29' E 011°35'1110.8
2014-Sep-12 20:33N 54°21' E 011°48'1110.9
2014-Sep-12 19:32N 54°14' E 012°02'5 4.8
2014-Sep-12 18:24N 54°09' E 012°08'0 0.0
2014-Sep-12 17:33N 54°09' E 012°08'0 0.0
2014-Sep-12 16:33N 54°09' E 012°08'0 0.0
2014-Sep-12 15:33N 54°09' E 012°08'0 0.0
2014-Sep-12 14:30N 54°09' E 012°08'0 0.0
2014-Sep-12 13:33N 54°09' E 012°08'0 0.0
2014-Sep-12 12:18N 54°09' E 012°08'0 0.0
2014-Sep-12 11:24N 54°09' E 012°08'0 0.0
2014-Sep-12 10:33N 54°09' E 012°08'5 5.4
2014-Sep-12 09:33N 54°14' E 012°02'9 9.6
2014-Sep-12 08:34N 54°18' E 011°48'10 9.9
2014-Sep-12 07:33N 54°25' E 011°35'1010.3
2014-Sep-12 06:33N 54°31' E 011°21'10 9.8
2014-Sep-12 05:34N 54°35' E 011°05'1110.6
2014-Sep-12 04:33N 54°34' E 010°47'49 6.9
2014-Sep-11 21:32N 54°12' E 009°33'4 4.2
2014-Sep-11 20:33N 54°10' E 009°26'5 5.1
2014-Sep-11 19:33N 54°07' E 009°20'9 8.6
2014-Sep-11 18:33N 53°59' E 009°16'3 2.6
2014-Sep-11 17:33N 53°57' E 009°14'4 4.3
2014-Sep-11 16:33N 53°54' E 009°09'4 4.2
2014-Sep-11 15:34N 53°52' E 009°16'9 8.6
2014-Sep-11 14:34N 53°45' E 009°24'8 8.1
2014-Sep-11 13:33N 53°39' E 009°32'8 7.9
2014-Sep-11 12:34N 53°34' E 009°42'9 9.2
2014-Sep-11 11:34N 53°31' E 009°57'1 0.8
2014-Sep-11 10:31N 53°30' E 009°58'0 0.0
2014-Sep-11 09:31N 53°30' E 009°58'0 0.0
2014-Sep-11 08:30N 53°30' E 009°58'0 0.0
2014-Sep-11 07:33N 53°30' E 009°58'0 0.0
2014-Sep-11 06:33N 53°30' E 009°58'0 0.0
2014-Sep-11 05:33N 53°30' E 009°58'0 0.0
2014-Sep-11 04:27N 53°30' E 009°58'0 0.0
2014-Sep-11 03:31N 53°30' E 009°58'0 0.0
2014-Sep-11 02:24N 53°30' E 009°58'2 1.8
2014-Sep-11 01:33N 53°31' E 009°56'1110.9
2014-Sep-11 00:33N 53°34' E 009°39'2512.3
2014-Sep-10 22:32N 53°53' E 009°10'1110.7
2014-Sep-10 21:33N 53°50' E 008°53'6 6.0
2014-Sep-10 20:31N 53°52' E 008°43'0 0.1
2014-Sep-10 19:31N 53°52' E 008°43'0 0.0
2014-Sep-10 18:31N 53°52' E 008°43'0 0.0
2014-Sep-10 17:31N 53°52' E 008°43'0 0.0
2014-Sep-10 16:31N 53°52' E 008°43'0 0.0
2014-Sep-10 15:31N 53°52' E 008°43'0 0.0
2014-Sep-10 14:31N 53°52' E 008°43'0 0.0
2014-Sep-10 13:31N 53°52' E 008°43'0 0.0
2014-Sep-10 12:31N 53°52' E 008°43'0 0.0
2014-Sep-10 11:31N 53°52' E 008°43'0 0.0
2014-Sep-10 10:28N 53°52' E 008°43'0 0.0
2014-Sep-10 09:28N 53°52' E 008°43'0 0.0
2014-Sep-10 08:31N 53°52' E 008°43'0 0.0
2014-Sep-10 07:31N 53°52' E 008°43'0 0.0
2014-Sep-10 06:31N 53°52' E 008°43'0 0.0
2014-Sep-10 05:31N 53°52' E 008°43'0 0.0
2014-Sep-10 04:31N 53°52' E 008°43'0 0.0
2014-Sep-10 03:25N 53°52' E 008°43'0 0.0
2014-Sep-10 02:31N 53°52' E 008°43'0 0.0
2014-Sep-10 01:26N 53°52' E 008°43'0 0.0
2014-Sep-10 00:31N 53°52' E 008°43'0 0.0
2014-Sep-09 23:31N 53°52' E 008°43'0 0.0
2014-Sep-09 22:31N 53°52' E 008°43'0 0.0
2014-Sep-09 21:31N 53°52' E 008°43'0 0.0
2014-Sep-09 20:31N 53°52' E 008°43'0 0.0
2014-Sep-09 19:31N 53°52' E 008°43'0 0.0
2014-Sep-09 18:31N 53°52' E 008°43'0 0.0
2014-Sep-09 17:31N 53°52' E 008°43'0 0.0
2014-Sep-09 16:31N 53°52' E 008°43'0 0.0
2014-Sep-09 15:31N 53°52' E 008°43'0 0.0
2014-Sep-09 14:31N 53°52' E 008°43'1 0.6
2014-Sep-09 13:33N 53°51' E 008°43'0 0.4
2014-Sep-09 12:31N 53°52' E 008°43'0 0.0
2014-Sep-09 11:28N 53°52' E 008°43'0 0.0
2014-Sep-09 10:31N 53°52' E 008°43'0 0.0
2014-Sep-09 09:31N 53°52' E 008°43'0 0.0
2014-Sep-09 08:31N 53°52' E 008°43'0 0.5
2014-Sep-09 07:33N 53°52' E 008°43'0 0.1
2014-Sep-09 06:33N 53°52' E 008°43'0 0.0
2014-Sep-09 05:33N 53°52' E 008°43'0 0.0
2014-Sep-09 04:33N 53°52' E 008°43'0 0.0
2014-Sep-09 03:33N 53°52' E 008°43'0 0.0
2014-Sep-09 02:33N 53°52' E 008°43'0 0.0
2014-Sep-09 01:30N 53°52' E 008°43'0 0.0
2014-Sep-09 00:33N 53°52' E 008°43'0 0.0
2014-Sep-08 23:33N 53°52' E 008°43'0 0.0
2014-Sep-08 22:33N 53°52' E 008°43'0 0.0
2014-Sep-08 21:33N 53°52' E 008°43'0 0.1
2014-Sep-08 20:33N 53°52' E 008°43'1 0.8
2014-Sep-08 19:33N 53°51' E 008°43'0 0.0
2014-Sep-08 18:32N 53°51' E 008°43'0 0.0
2014-Sep-08 17:32N 53°51' E 008°43'0 0.0
2014-Sep-08 16:32N 53°51' E 008°43'0 0.0
2014-Sep-08 15:32N 53°51' E 008°43'0 0.0
2014-Sep-08 14:32N 53°51' E 008°43'0 0.0
2014-Sep-08 13:29N 53°51' E 008°43'0 0.0
2014-Sep-08 12:32N 53°51' E 008°43'0 0.0
2014-Sep-08 11:32N 53°51' E 008°43'0 0.0
2014-Sep-08 10:32N 53°51' E 008°43'0 0.0
2014-Sep-08 09:32N 53°51' E 008°43'0 0.0
2014-Sep-08 08:32N 53°51' E 008°43'1 0.6
2014-Sep-08 07:32N 53°52' E 008°43'0 0.0
2014-Sep-08 06:32N 53°52' E 008°43'0 0.0
2014-Sep-08 05:32N 53°52' E 008°43'0 0.0
2014-Sep-08 04:32N 53°52' E 008°43'0 0.0
2014-Sep-08 03:32N 53°52' E 008°43'0 0.0
2014-Sep-08 02:32N 53°52' E 008°43'0 0.0
2014-Sep-08 01:32N 53°52' E 008°43'0 0.0
2014-Sep-08 00:32N 53°52' E 008°43'0 0.0
2014-Sep-07 23:32N 53°52' E 008°43'0 0.0
2014-Sep-07 21:32N 53°52' E 008°43'0 0.0
2014-Sep-07 20:32N 53°52' E 008°43'0 0.0
2014-Sep-07 19:32N 53°52' E 008°43'0 0.0
2014-Sep-07 18:32N 53°52' E 008°43'0 0.0
2014-Sep-07 17:32N 53°52' E 008°43'0 0.0
2014-Sep-07 16:32N 53°52' E 008°43'0 0.2
2014-Sep-07 15:33N 53°52' E 008°43'8 8.5
2014-Sep-07 14:33N 53°51' E 008°57'1212.4
2014-Sep-07 13:33N 53°52' E 009°18'1110.8
2014-Sep-07 12:34N 53°43' E 009°29'9 9.3
2014-Sep-07 11:33N 53°35' E 009°37'8 8.3
2014-Sep-07 10:33N 53°33' E 009°50'5 5.2
2014-Sep-07 09:33N 53°30' E 009°58'0 0.0
2014-Sep-07 08:31N 53°30' E 009°58'0 0.0
2014-Sep-07 07:31N 53°30' E 009°58'0 0.0
2014-Sep-07 06:31N 53°30' E 009°58'0 0.0
2014-Sep-07 05:31N 53°30' E 009°58'0 0.3
2014-Sep-07 04:33N 53°30' E 009°57'0 0.2
2014-Sep-07 03:29N 53°30' E 009°57'0 0.0
2014-Sep-07 02:29N 53°30' E 009°57'0 0.0
2014-Sep-07 01:33N 53°30' E 009°57'2 1.8
2014-Sep-07 00:33N 53°32' E 009°58'0 0.0
2014-Sep-06 23:29N 53°32' E 009°58'  
Track history (hours):
 
Tides and Currents Weather Stations Pressure Air Temp Water Temp Dewpoint Dewpoint Depression Visibility Wind Speed Wind Dir Waves Ship Positions

Antares

Last reported at 2014-Sep-16 22:33 UTC. Time now 2014-Sep-16 23:31 UTC.
Position N 50°50' E 000°60'.

Length 79 m; draft 4.5 m.

Type: Ship. MMSI: 218777000.

Date/timePositionNaut miles runAvg speedWind from/ knotsBaromVisibWave heightAir tempDewpointWater temp
2014-Sep-16 22:33N 50°50' E 000°60'1111.4
2014-Sep-16 21:34N 50°57' E 001°13'1110.9
2014-Sep-16 20:33N 51°04' E 001°27'10 9.7
2014-Sep-16 19:34N 51°10' E 001°39'9 9.0
2014-Sep-16 18:34N 51°17' E 001°48'9 9.3
2014-Sep-16 17:34N 51°26' E 001°53'10 9.7
2014-Sep-16 16:34N 51°33' E 002°03'1110.7
2014-Sep-16 15:33N 51°41' E 002°16'1111.3
2014-Sep-16 14:33N 51°49' E 002°28'1211.8
2014-Sep-16 13:33N 51°58' E 002°41'1110.9
2014-Sep-16 12:33N 52°01' E 002°58'1110.9
2014-Sep-16 11:33N 52°02' E 003°16'1110.6
2014-Sep-16 10:33N 52°03' E 003°33'1010.3
2014-Sep-16 09:33N 52°03' E 003°50'10 9.8
2014-Sep-16 08:34N 51°59' E 004°04'1010.0
2014-Sep-16 07:33N 51°54' E 004°18'6 5.9
2014-Sep-16 06:34N 51°50' E 004°26'8 7.9
2014-Sep-16 05:34N 51°48' E 004°38'1 0.6
2014-Sep-16 04:31N 51°47' E 004°38'0 0.0
2014-Sep-16 03:31N 51°47' E 004°38'0 0.0
2014-Sep-16 02:31N 51°47' E 004°38'0 0.0
2014-Sep-16 01:31N 51°47' E 004°38'0 0.0
2014-Sep-16 00:31N 51°47' E 004°38'0 0.0
2014-Sep-15 23:31N 51°47' E 004°38'0 0.0
2014-Sep-15 22:28N 51°47' E 004°38'0 0.0
2014-Sep-15 21:31N 51°47' E 004°38'0 0.0
2014-Sep-15 20:31N 51°47' E 004°38'0 0.0
2014-Sep-15 19:31N 51°47' E 004°38'0 0.0
2014-Sep-15 18:31N 51°47' E 004°38'0 0.0
2014-Sep-15 17:31N 51°47' E 004°38'0 0.0
2014-Sep-15 16:31N 51°47' E 004°38'0 0.0
2014-Sep-15 15:31N 51°47' E 004°38'0 0.0
2014-Sep-15 14:31N 51°47' E 004°38'0 0.0
2014-Sep-15 13:28N 51°47' E 004°38'0 0.0
2014-Sep-15 12:31N 51°47' E 004°38'0 0.0
2014-Sep-15 11:31N 51°47' E 004°38'0 0.0
2014-Sep-15 10:31N 51°47' E 004°38'0 0.0
2014-Sep-15 09:31N 51°47' E 004°38'0 0.0
2014-Sep-15 08:31N 51°47' E 004°38'0 0.3
2014-Sep-15 07:34N 51°47' E 004°38'8 8.3
2014-Sep-15 06:34N 51°50' E 004°26'6 6.1
2014-Sep-15 05:33N 51°54' E 004°17'9 8.5
2014-Sep-15 04:33N 51°59' E 004°06'1010.0
2014-Sep-15 03:33N 51°59' E 003°50'3 2.7
2014-Sep-15 02:21N 51°56' E 003°46'0 0.0
2014-Sep-15 01:21N 51°56' E 003°46'0 0.0
2014-Sep-15 00:33N 51°56' E 003°46'0 0.0
2014-Sep-14 23:33N 51°56' E 003°46'0 0.0
2014-Sep-14 22:24N 51°56' E 003°46'0 0.0
2014-Sep-14 21:21N 51°56' E 003°46'0 0.1
2014-Sep-14 20:21N 51°56' E 003°47'0 0.0
2014-Sep-14 19:27N 51°56' E 003°47'0 0.0
2014-Sep-14 18:33N 51°56' E 003°47'0 0.0
2014-Sep-14 17:33N 51°56' E 003°47'0 0.1
2014-Sep-14 16:21N 51°56' E 003°46'0 0.0
2014-Sep-14 15:30N 51°56' E 003°46'0 0.0
2014-Sep-14 14:33N 51°56' E 003°46'0 0.0
2014-Sep-14 13:21N 51°56' E 003°46'1 1.8
2014-Sep-14 12:33N 51°57' E 003°45'1212.0
2014-Sep-14 11:33N 52°09' E 003°45'1111.2
2014-Sep-14 10:33N 52°20' E 003°48'7110.2
2014-Sep-14 03:32N 53°26' E 004°36'1111.6
2014-Sep-14 02:33N 53°31' E 004°53'1211.8
2014-Sep-14 01:33N 53°35' E 005°11'4110.3
2014-Sep-13 21:33N 53°49' E 006°17'1310.5
2014-Sep-13 20:21N 53°52' E 006°38'2711.8
2014-Sep-13 18:04N 53°58' E 007°22'612.0
2014-Sep-13 17:33N 53°60' E 007°33'1211.7
2014-Sep-13 16:33N 54°01' E 007°52'1211.6
2014-Sep-13 15:33N 54°01' E 008°12'1110.8
2014-Sep-13 14:33N 53°59' E 008°30'8 8.5
2014-Sep-13 13:33N 53°54' E 008°42'7 7.4
2014-Sep-13 12:33N 53°51' E 008°53'9 9.5
2014-Sep-13 11:33N 53°54' E 009°09'2 2.0
2014-Sep-13 10:33N 53°55' E 009°11'8 8.4
2014-Sep-13 09:33N 54°02' E 009°18'8 8.0
2014-Sep-13 08:33N 54°10' E 009°24'9 8.3
2014-Sep-13 07:27N 54°14' E 009°37'46 6.3
2014-Sep-13 00:04N 54°35' E 010°48'611.3
2014-Sep-12 23:33N 54°35' E 010°58'1111.3
2014-Sep-12 22:34N 54°35' E 011°17'1211.7
2014-Sep-12 21:33N 54°29' E 011°35'1110.8
2014-Sep-12 20:33N 54°21' E 011°48'1110.9
2014-Sep-12 19:32N 54°14' E 012°02'5 4.8
2014-Sep-12 18:24N 54°09' E 012°08'0 0.0
2014-Sep-12 17:33N 54°09' E 012°08'0 0.0
2014-Sep-12 16:33N 54°09' E 012°08'0 0.0
2014-Sep-12 15:33N 54°09' E 012°08'0 0.0
2014-Sep-12 14:30N 54°09' E 012°08'0 0.0
2014-Sep-12 13:33N 54°09' E 012°08'0 0.0
2014-Sep-12 12:18N 54°09' E 012°08'0 0.0
2014-Sep-12 11:24N 54°09' E 012°08'0 0.0
2014-Sep-12 10:33N 54°09' E 012°08'5 5.4
2014-Sep-12 09:33N 54°14' E 012°02'9 9.6
2014-Sep-12 08:34N 54°18' E 011°48'10 9.9
2014-Sep-12 07:33N 54°25' E 011°35'1010.3
2014-Sep-12 06:33N 54°31' E 011°21'10 9.8
2014-Sep-12 05:34N 54°35' E 011°05'1110.6
2014-Sep-12 04:33N 54°34' E 010°47'49 6.9
2014-Sep-11 21:32N 54°12' E 009°33'4 4.2
2014-Sep-11 20:33N 54°10' E 009°26'5 5.1
2014-Sep-11 19:33N 54°07' E 009°20'9 8.6
2014-Sep-11 18:33N 53°59' E 009°16'3 2.6
2014-Sep-11 17:33N 53°57' E 009°14'4 4.3
2014-Sep-11 16:33N 53°54' E 009°09'4 4.2
2014-Sep-11 15:34N 53°52' E 009°16'9 8.6
2014-Sep-11 14:34N 53°45' E 009°24'8 8.1
2014-Sep-11 13:33N 53°39' E 009°32'8 7.9
2014-Sep-11 12:34N 53°34' E 009°42'9 9.2
2014-Sep-11 11:34N 53°31' E 009°57'1 0.8
2014-Sep-11 10:31N 53°30' E 009°58'0 0.0
2014-Sep-11 09:31N 53°30' E 009°58'0 0.0
2014-Sep-11 08:30N 53°30' E 009°58'0 0.0
2014-Sep-11 07:33N 53°30' E 009°58'0 0.0
2014-Sep-11 06:33N 53°30' E 009°58'0 0.0
2014-Sep-11 05:33N 53°30' E 009°58'0 0.0
2014-Sep-11 04:27N 53°30' E 009°58'0 0.0
2014-Sep-11 03:31N 53°30' E 009°58'0 0.0
2014-Sep-11 02:24N 53°30' E 009°58'2 1.8
2014-Sep-11 01:33N 53°31' E 009°56'1110.9
2014-Sep-11 00:33N 53°34' E 009°39'2512.3
2014-Sep-10 22:32N 53°53' E 009°10'1110.7
2014-Sep-10 21:33N 53°50' E 008°53'6 6.0
2014-Sep-10 20:31N 53°52' E 008°43'0 0.1
2014-Sep-10 19:31N 53°52' E 008°43'0 0.0
2014-Sep-10 18:31N 53°52' E 008°43'0 0.0
2014-Sep-10 17:31N 53°52' E 008°43'0 0.0
2014-Sep-10 16:31N 53°52' E 008°43'0 0.0
2014-Sep-10 15:31N 53°52' E 008°43'0 0.0
2014-Sep-10 14:31N 53°52' E 008°43'0 0.0
2014-Sep-10 13:31N 53°52' E 008°43'0 0.0
2014-Sep-10 12:31N 53°52' E 008°43'0 0.0
2014-Sep-10 11:31N 53°52' E 008°43'0 0.0
2014-Sep-10 10:28N 53°52' E 008°43'0 0.0
2014-Sep-10 09:28N 53°52' E 008°43'0 0.0
2014-Sep-10 08:31N 53°52' E 008°43'0 0.0
2014-Sep-10 07:31N 53°52' E 008°43'0 0.0
2014-Sep-10 06:31N 53°52' E 008°43'0 0.0
2014-Sep-10 05:31N 53°52' E 008°43'0 0.0
2014-Sep-10 04:31N 53°52' E 008°43'0 0.0
2014-Sep-10 03:25N 53°52' E 008°43'0 0.0
2014-Sep-10 02:31N 53°52' E 008°43'0 0.0
2014-Sep-10 01:26N 53°52' E 008°43'0 0.0
2014-Sep-10 00:31N 53°52' E 008°43'0 0.0
2014-Sep-09 23:31N 53°52' E 008°43'0 0.0
2014-Sep-09 22:31N 53°52' E 008°43'0 0.0
2014-Sep-09 21:31N 53°52' E 008°43'0 0.0
2014-Sep-09 20:31N 53°52' E 008°43'0 0.0
2014-Sep-09 19:31N 53°52' E 008°43'0 0.0
2014-Sep-09 18:31N 53°52' E 008°43'0 0.0
2014-Sep-09 17:31N 53°52' E 008°43'0 0.0
2014-Sep-09 16:31N 53°52' E 008°43'0 0.0
2014-Sep-09 15:31N 53°52' E 008°43'0 0.0
2014-Sep-09 14:31N 53°52' E 008°43'1 0.6
2014-Sep-09 13:33N 53°51' E 008°43'0 0.4
2014-Sep-09 12:31N 53°52' E 008°43'0 0.0
2014-Sep-09 11:28N 53°52' E 008°43'0 0.0
2014-Sep-09 10:31N 53°52' E 008°43'0 0.0
2014-Sep-09 09:31N 53°52' E 008°43'0 0.0
2014-Sep-09 08:31N 53°52' E 008°43'0 0.5
2014-Sep-09 07:33N 53°52' E 008°43'0 0.1
2014-Sep-09 06:33N 53°52' E 008°43'0 0.0
2014-Sep-09 05:33N 53°52' E 008°43'0 0.0
2014-Sep-09 04:33N 53°52' E 008°43'0 0.0
2014-Sep-09 03:33N 53°52' E 008°43'0 0.0
2014-Sep-09 02:33N 53°52' E 008°43'0 0.0
2014-Sep-09 01:30N 53°52' E 008°43'0 0.0
2014-Sep-09 00:33N 53°52' E 008°43'0 0.0
2014-Sep-08 23:33N 53°52' E 008°43'0 0.0
2014-Sep-08 22:33N 53°52' E 008°43'0 0.0
2014-Sep-08 21:33N 53°52' E 008°43'0 0.1
2014-Sep-08 20:33N 53°52' E 008°43'1 0.8
2014-Sep-08 19:33N 53°51' E 008°43'0 0.0
2014-Sep-08 18:32N 53°51' E 008°43'0 0.0
2014-Sep-08 17:32N 53°51' E 008°43'0 0.0
2014-Sep-08 16:32N 53°51' E 008°43'0 0.0
2014-Sep-08 15:32N 53°51' E 008°43'0 0.0
2014-Sep-08 14:32N 53°51' E 008°43'0 0.0
2014-Sep-08 13:29N 53°51' E 008°43'0 0.0
2014-Sep-08 12:32N 53°51' E 008°43'0 0.0
2014-Sep-08 11:32N 53°51' E 008°43'0 0.0
2014-Sep-08 10:32N 53°51' E 008°43'0 0.0
2014-Sep-08 09:32N 53°51' E 008°43'0 0.0
2014-Sep-08 08:32N 53°51' E 008°43'1 0.6
2014-Sep-08 07:32N 53°52' E 008°43'0 0.0
2014-Sep-08 06:32N 53°52' E 008°43'0 0.0
2014-Sep-08 05:32N 53°52' E 008°43'0 0.0
2014-Sep-08 04:32N 53°52' E 008°43'0 0.0
2014-Sep-08 03:32N 53°52' E 008°43'0 0.0
2014-Sep-08 02:32N 53°52' E 008°43'0 0.0
2014-Sep-08 01:32N 53°52' E 008°43'0 0.0
2014-Sep-08 00:32N 53°52' E 008°43'0 0.0
2014-Sep-07 23:32N 53°52' E 008°43'0 0.0
2014-Sep-07 21:32N 53°52' E 008°43'0 0.0
2014-Sep-07 20:32N 53°52' E 008°43'0 0.0
2014-Sep-07 19:32N 53°52' E 008°43'0 0.0
2014-Sep-07 18:32N 53°52' E 008°43'0 0.0
2014-Sep-07 17:32N 53°52' E 008°43'0 0.0
2014-Sep-07 16:32N 53°52' E 008°43'0 0.2
2014-Sep-07 15:33N 53°52' E 008°43'8 8.5
2014-Sep-07 14:33N 53°51' E 008°57'1212.4
2014-Sep-07 13:33N 53°52' E 009°18'1110.8
2014-Sep-07 12:34N 53°43' E 009°29'9 9.3
2014-Sep-07 11:33N 53°35' E 009°37'8 8.3
2014-Sep-07 10:33N 53°33' E 009°50'5 5.2
2014-Sep-07 09:33N 53°30' E 009°58'0 0.0
2014-Sep-07 08:31N 53°30' E 009°58'0 0.0
2014-Sep-07 07:31N 53°30' E 009°58'0 0.0
2014-Sep-07 06:31N 53°30' E 009°58'0 0.0
2014-Sep-07 05:31N 53°30' E 009°58'0 0.3
2014-Sep-07 04:33N 53°30' E 009°57'0 0.2
2014-Sep-07 03:29N 53°30' E 009°57'0 0.0
2014-Sep-07 02:29N 53°30' E 009°57'0 0.0
2014-Sep-07 01:33N 53°30' E 009°57'2 1.8
2014-Sep-07 00:33N 53°32' E 009°58'0 0.0
2014-Sep-06 23:29N 53°32' E 009°58'  

Dump ship's entire track history